createdAt,value
2022-08-04T00:03:20.683Z,49.60
2022-08-04T00:08:34.786Z,49.90
2022-08-04T00:13:59.815Z,50.10
2022-08-04T00:19:06.621Z,50.50
2022-08-04T00:24:13.341Z,50.40
2022-08-04T00:29:17.139Z,50.50
2022-08-04T00:34:21.114Z,50.50
2022-08-04T00:39:26.882Z,50.30
2022-08-04T00:44:44.169Z,50.00
2022-08-04T00:50:06.121Z,49.60
2022-08-04T00:55:28.993Z,49.40
2022-08-04T01:00:43.209Z,49.20
2022-08-04T01:05:58.270Z,49.30
2022-08-04T01:11:11.594Z,49.60
2022-08-04T01:16:18.622Z,49.50
2022-08-04T01:21:58.434Z,49.50
2022-08-04T01:27:07.879Z,49.60
2022-08-04T01:32:20.939Z,50.10
2022-08-04T01:37:43.021Z,50.50
2022-08-04T01:42:46.630Z,51.40
2022-08-04T01:47:52.816Z,51.10
2022-08-04T01:52:57.197Z,51.40
2022-08-04T01:58:02.298Z,51.70
2022-08-04T02:03:06.850Z,52.00
2022-08-04T02:08:22.076Z,52.20
2022-08-04T02:13:35.489Z,52.50
2022-08-04T02:18:47.800Z,52.90
2022-08-04T02:23:55.183Z,53.30
2022-08-04T02:29:05.723Z,53.70
2022-08-04T02:34:17.699Z,54.10
2022-08-04T02:39:23.175Z,54.60
2022-08-04T02:44:29.502Z,55.00
2022-08-04T02:49:40.583Z,55.40
2022-08-04T02:54:46.115Z,55.80
2022-08-04T03:00:09.139Z,56.40
2022-08-04T03:05:18.573Z,56.80
2022-08-04T03:10:56.486Z,57.40
2022-08-04T03:16:38.713Z,57.70
2022-08-04T03:22:23.558Z,58.10
2022-08-04T03:27:49.102Z,58.50
2022-08-04T03:33:26.016Z,58.80
2022-08-04T03:39:09.433Z,59.10
2022-08-04T03:44:30.985Z,59.40
2022-08-04T03:50:10.004Z,60.10
2022-08-04T03:55:43.493Z,59.80
2022-08-04T04:00:59.771Z,59.80
2022-08-04T04:06:29.268Z,60.10
2022-08-04T04:11:57.739Z,60.20
2022-08-04T04:17:14.986Z,60.50
2022-08-04T04:22:28.827Z,60.80
2022-08-04T04:27:45.046Z,60.90
2022-08-04T04:33:06.305Z,60.80
2022-08-04T04:38:41.350Z,60.80
2022-08-04T04:44:06.279Z,60.80
2022-08-04T04:49:18.999Z,61.00
2022-08-04T04:54:30.091Z,61.40
2022-08-04T04:59:38.311Z,61.80
2022-08-04T05:05:22.532Z,62.00
2022-08-04T05:10:40.735Z,62.00
2022-08-04T05:15:48.942Z,62.20
2022-08-04T05:20:57.975Z,62.30
2022-08-04T05:26:04.333Z,62.20
2022-08-04T05:31:13.794Z,62.10
2022-08-04T05:36:35.376Z,61.30
2022-08-04T05:41:48.184Z,60.30
2022-08-04T05:47:01.061Z,59.60
2022-08-04T05:52:06.796Z,59.20
2022-08-04T05:57:10.585Z,59.00
2022-08-04T06:02:17.165Z,58.70
2022-08-04T06:07:20.877Z,58.30
2022-08-04T06:12:28.061Z,57.90
2022-08-04T06:19:10.059Z,57.90
2022-08-04T06:23:04.067Z,57.50
2022-08-04T06:28:07.710Z,57.20
2022-08-04T06:33:24.892Z,56.80
2022-08-04T06:38:30.157Z,56.40
2022-08-04T06:43:33.972Z,56.20
2022-08-04T06:48:48.312Z,54.90
2022-08-04T06:53:51.808Z,54.00
2022-08-04T06:58:56.391Z,53.40
2022-08-04T07:04:01.603Z,53.30
2022-08-04T07:09:06.251Z,53.00
2022-08-04T07:14:10.630Z,52.50
2022-08-04T07:19:18.907Z,51.70
2022-08-04T07:24:30.132Z,50.70
2022-08-04T07:29:34.492Z,50.00
2022-08-04T07:34:40.142Z,49.70
2022-08-04T07:39:48.482Z,49.00
2022-08-04T07:44:52.012Z,48.70
2022-08-04T07:49:58.116Z,48.10
2022-08-04T07:55:01.742Z,47.80
2022-08-04T08:00:06.881Z,46.90
2022-08-04T08:05:14.330Z,46.30
2022-08-04T08:10:18.550Z,45.60
2022-08-04T08:15:23.050Z,45.00
2022-08-04T08:20:30.373Z,45.30
2022-08-04T08:25:34.776Z,44.40
2022-08-04T08:30:38.245Z,43.90
2022-08-04T08:35:54.943Z,43.80
2022-08-04T08:41:19.366Z,43.50
2022-08-04T08:46:58.222Z,43.00
2022-08-04T08:52:55.381Z,42.80
2022-08-04T08:58:07.449Z,42.10
2022-08-04T09:03:45.335Z,41.50
2022-08-04T09:09:05.577Z,41.10
2022-08-04T09:14:18.355Z,40.90
2022-08-04T09:19:38.607Z,40.60
2022-08-04T09:24:51.769Z,40.10
2022-08-04T09:30:03.264Z,39.70
2022-08-04T09:35:19.553Z,39.40
2022-08-04T09:40:31.106Z,38.90
2022-08-04T09:45:47.089Z,38.70
2022-08-04T09:50:58.086Z,38.10
2022-08-04T09:56:10.696Z,37.80
2022-08-04T10:01:23.106Z,37.50
2022-08-04T10:06:44.160Z,36.70
2022-08-04T10:12:04.563Z,36.40
2022-08-04T10:17:23.341Z,36.10
2022-08-04T10:22:44.692Z,35.80
2022-08-04T10:28:04.006Z,35.40
2022-08-04T10:33:13.898Z,34.80
2022-08-04T10:38:26.775Z,34.40
2022-08-04T10:43:47.539Z,34.00
2022-08-04T10:48:58.578Z,33.60
2022-08-04T10:54:04.200Z,33.60
2022-08-04T10:59:14.237Z,33.70
2022-08-04T11:04:27.707Z,33.20
2022-08-04T11:09:32.790Z,32.90
2022-08-04T11:14:43.602Z,32.60
2022-08-04T11:19:53.897Z,32.20
2022-08-04T11:25:10.393Z,32.20
2022-08-04T11:30:17.771Z,32.00
2022-08-04T11:35:29.287Z,31.70
2022-08-04T11:40:38.820Z,31.50
2022-08-04T11:45:52.114Z,31.40
2022-08-04T11:50:56.748Z,31.10
2022-08-04T11:56:07.563Z,30.70
2022-08-04T12:01:22.054Z,30.40
2022-08-04T12:06:31.842Z,29.90
2022-08-04T12:11:57.423Z,29.60
2022-08-04T12:17:03.375Z,29.40
2022-08-04T12:22:11.414Z,29.30
2022-08-04T12:27:19.067Z,29.10
2022-08-04T12:32:27.648Z,28.80
2022-08-04T12:49:32.892Z,27.80
2022-08-04T12:55:06.640Z,27.10
2022-08-04T13:02:11.015Z,26.90
2022-08-04T13:37:21.075Z,26.80
2022-08-04T13:48:15.706Z,27.20
2022-08-04T13:53:32.655Z,26.90
2022-08-04T13:58:41.036Z,27.10
2022-08-04T14:03:58.345Z,27.20
2022-08-04T14:09:03.615Z,27.00
2022-08-04T14:14:20.367Z,28.00
2022-08-04T14:19:30.620Z,28.60
2022-08-04T14:24:39.179Z,28.90
2022-08-04T14:29:43.609Z,29.10
2022-08-04T14:34:53.369Z,29.20
2022-08-04T14:40:18.996Z,29.30
2022-08-04T14:45:32.798Z,29.50
2022-08-04T14:50:39.818Z,29.50
2022-08-04T14:55:46.382Z,29.50
2022-08-04T15:00:50.794Z,29.60
2022-08-04T15:06:05.307Z,29.60
2022-08-04T15:11:10.234Z,29.60
2022-08-04T15:16:28.048Z,29.90
2022-08-04T15:21:36.973Z,30.00
2022-08-04T15:26:44.193Z,30.20
2022-08-04T15:32:05.631Z,30.30
2022-08-04T15:37:17.086Z,30.50
2022-08-04T15:42:31.387Z,30.40
2022-08-04T15:47:34.651Z,30.50
2022-08-04T15:53:12.467Z,30.60
2022-08-04T15:58:17.398Z,30.60
2022-08-04T16:03:58.133Z,30.90
2022-08-04T16:09:06.562Z,31.00
2022-08-04T16:14:10.726Z,30.90
2022-08-04T16:19:24.259Z,30.90
2022-08-04T16:24:33.342Z,30.90
2022-08-04T16:29:39.287Z,31.00
2022-08-04T16:34:54.587Z,31.30
2022-08-04T16:40:44.239Z,31.50
2022-08-04T16:45:52.681Z,31.60
2022-08-04T16:51:05.115Z,31.60
2022-08-04T16:56:11.925Z,31.80
2022-08-04T17:01:21.854Z,31.90
2022-08-04T17:06:37.699Z,32.10
2022-08-04T17:11:41.678Z,31.90
2022-08-04T17:16:46.235Z,32.00
2022-08-04T17:21:50.224Z,32.00
2022-08-04T17:26:54.960Z,32.70
2022-08-04T17:31:59.678Z,32.20
2022-08-04T17:37:36.660Z,32.30
2022-08-04T17:42:30.719Z,32.30
2022-08-04T17:47:38.302Z,32.40
2022-08-04T17:52:45.518Z,32.70
2022-08-04T17:58:21.027Z,32.80
2022-08-04T18:03:29.964Z,33.00
2022-08-04T18:13:57.045Z,33.50
2022-08-04T18:19:12.237Z,33.70
2022-08-04T18:24:15.683Z,33.80
2022-08-04T18:29:31.886Z,34.10
2022-08-04T18:34:40.863Z,34.10
2022-08-04T18:40:21.365Z,34.40
2022-08-04T18:45:21.083Z,34.70
2022-08-04T18:51:00.348Z,35.00
2022-08-04T18:55:56.827Z,35.20
2022-08-04T19:01:01.328Z,35.60
2022-08-04T19:06:07.502Z,36.30
2022-08-04T19:11:37.494Z,36.20
2022-08-04T19:16:35.059Z,36.50
2022-08-04T19:22:00.874Z,36.70
2022-08-04T19:27:08.075Z,36.80
2022-08-04T19:32:15.583Z,36.80
2022-08-04T19:37:58.337Z,36.90
2022-08-04T19:42:44.315Z,37.20
2022-08-04T19:48:16.267Z,37.50
2022-08-04T19:53:20.149Z,37.70
2022-08-04T19:58:41.906Z,38.00
2022-08-04T20:04:10.469Z,38.40
2022-08-04T20:14:39.578Z,39.00
2022-08-04T20:19:51.369Z,39.20
2022-08-04T20:25:17.965Z,39.30
2022-08-04T20:30:20.029Z,39.50
2022-08-04T20:40:50.741Z,39.90
2022-08-04T20:45:56.998Z,40.00
2022-08-04T20:51:02.815Z,40.20
2022-08-04T20:56:07.816Z,40.20
2022-08-04T21:01:11.173Z,40.30
2022-08-04T21:06:17.681Z,40.20
2022-08-04T21:11:22.253Z,40.20
2022-08-04T21:16:55.503Z,40.20
2022-08-04T21:21:52.239Z,40.40
2022-08-04T21:26:58.219Z,40.60
2022-08-04T21:32:12.753Z,40.70
2022-08-04T21:37:17.645Z,40.70
2022-08-04T21:42:28.091Z,41.00
2022-08-04T21:47:49.508Z,41.20
2022-08-04T21:52:53.006Z,41.50
2022-08-04T21:57:57.555Z,41.70
2022-08-04T22:03:03.357Z,41.90
2022-08-04T22:08:06.942Z,42.10
2022-08-04T22:13:24.692Z,42.20
2022-08-04T22:18:47.973Z,42.40
2022-08-04T22:23:51.812Z,42.70
2022-08-04T22:28:57.668Z,42.90
2022-08-04T22:34:01.500Z,43.10
2022-08-04T22:39:08.459Z,43.40
2022-08-04T22:44:15.959Z,43.60
2022-08-04T22:49:23.840Z,43.90
2022-08-04T22:54:35.227Z,44.50
2022-08-04T22:59:43.222Z,45.10
2022-08-04T23:04:49.948Z,45.40
2022-08-04T23:09:57.089Z,45.80
2022-08-04T23:15:01.828Z,46.30
2022-08-04T23:20:06.753Z,46.60
2022-08-04T23:25:33.192Z,46.90
2022-08-04T23:30:51.808Z,47.20
2022-08-04T23:35:58.113Z,47.30
2022-08-04T23:41:07.310Z,47.40
2022-08-04T23:46:18.596Z,47.40
2022-08-04T23:51:24.280Z,47.80
2022-08-04T23:56:27.983Z,48.20
